Main page
METAR-TAF:

METAR-TAF

Airports :

Jackson Municipal Airport

Jackson, Minnesota, United States

latitude: 43-39N, longitude: 094-59W, elevation: 1446 ft

Current weather observation

The report was made 1 hour and 11 minutes ago, at 20:55 UTC
Wind 15 mph from the Southwest
Temperature 16°F
Humidity 57%
Pressure 30.64 in. Hg
Visibility: 10 miles
Clear sky

METAR: KMJQ 202055Z AUTO 23013KT 10SM CLR M09/M16 A3064 RMK AO2

Time: 16:06 (22:06 UTC)


TAF: missing

Weather observations and forecasts of more than 4000 airports (METAR and TAF reports).

The available stations are represented by yellow and red dots on the map.

Hover mouse over dot to see the name of the station.

Then click to see weather observations and forecasts.

To change the map : click on the green buttons with a black cross to zoom in, on the green button with a dash to zoom out, or on the green arrows for adjacent maps.


METAR-TAF: